Puropanmaru No.3 — JD3322 — position and weather

sailwx.info

Track history (hours):
 
Tides and Currents Weather Stations Pressure Air Temp Water Temp Dewpoint Dewpoint Depression Visibility Wind Speed Wind Dir Waves Ship Positions

Puropanmaru No.3

Last reported at 2014-Dec-15 10:06 UTC. Time now 2014-Dec-18 13:29 UTC.
Position N 34°07' E 134°46'.

Length 68 m; draft 4.5 m.

Type: Tanker. MMSI: 431003365.

Date/timePositionNaut miles runAvg speedWind from/ knotsBaromVisibWave heightAir tempDewpointWater temp
2014-Dec-15 10:06N 34°07' E 134°46'255 4.9
2014-Dec-13 06:16N 35°13' E 139°46'912.2
2014-Dec-13 05:33N 35°21' E 139°42'15 2.3
2014-Dec-12 23:08N 35°30' E 139°57'2 3.3
2014-Dec-12 22:33N 35°29' E 139°56'0 0.0
2014-Dec-12 21:16N 35°29' E 139°56'3 4.1
2014-Dec-12 20:33N 35°29' E 139°52'1212.6
2014-Dec-12 19:33N 35°18' E 139°44'24711.1
2014-Dec-11 21:25N 34°01' E 134°59'1213.8
2014-Dec-11 20:34N 34°13' E 134°59'1414.2
2014-Dec-11 19:33N 34°27' E 135°01'10 9.8
2014-Dec-11 18:33N 34°36' E 134°57'  
2014-Dec-07 04:33N 35°19' E 139°43'1211.2
2014-Dec-07 03:32N 35°29' E 139°50'7 0.2
2014-Dec-05 17:20N 35°31' E 139°58'1012.9
2014-Dec-05 16:34N 35°25' E 139°48'1211.9
2014-Dec-05 15:33N 35°13' E 139°47'  
Track history (hours):
 
Tides and Currents Weather Stations Pressure Air Temp Water Temp Dewpoint Dewpoint Depression Visibility Wind Speed Wind Dir Waves Ship Positions

Puropanmaru No.3

Last reported at 2014-Dec-15 10:06 UTC. Time now 2014-Dec-18 13:29 UTC.
Position N 34°07' E 134°46'.

Length 68 m; draft 4.5 m.

Type: Tanker. MMSI: 431003365.

Date/timePositionNaut miles runAvg speedWind from/ knotsBaromVisibWave heightAir tempDewpointWater temp
2014-Dec-15 10:06N 34°07' E 134°46'255 4.9
2014-Dec-13 06:16N 35°13' E 139°46'912.2
2014-Dec-13 05:33N 35°21' E 139°42'15 2.3
2014-Dec-12 23:08N 35°30' E 139°57'2 3.3
2014-Dec-12 22:33N 35°29' E 139°56'0 0.0
2014-Dec-12 21:16N 35°29' E 139°56'3 4.1
2014-Dec-12 20:33N 35°29' E 139°52'1212.6
2014-Dec-12 19:33N 35°18' E 139°44'24711.1
2014-Dec-11 21:25N 34°01' E 134°59'1213.8
2014-Dec-11 20:34N 34°13' E 134°59'1414.2
2014-Dec-11 19:33N 34°27' E 135°01'10 9.8
2014-Dec-11 18:33N 34°36' E 134°57'  
2014-Dec-07 04:33N 35°19' E 139°43'1211.2
2014-Dec-07 03:32N 35°29' E 139°50'7 0.2
2014-Dec-05 17:20N 35°31' E 139°58'1012.9
2014-Dec-05 16:34N 35°25' E 139°48'1211.9
2014-Dec-05 15:33N 35°13' E 139°47'  

Dump ship's entire track history